sensor_id;sensor_type;location;lat;lon;timestamp;temperature;humidity
32612;DHT22;19030;49.478;8.986;2023-09-30T00:00:45;16.60;99.90
32612;DHT22;19030;49.478;8.986;2023-09-30T00:02:46;16.60;99.90
32612;DHT22;19030;49.478;8.986;2023-09-30T00:04:47;16.50;99.90
32612;DHT22;19030;49.478;8.986;2023-09-30T00:06:47;16.50;99.90
32612;DHT22;19030;49.478;8.986;2023-09-30T00:08:48;16.40;99.90
32612;DHT22;19030;49.478;8.986;2023-09-30T00:10:48;16.40;99.90
32612;DHT22;19030;49.478;8.986;2023-09-30T00:12:49;16.40;99.90
32612;DHT22;19030;49.478;8.986;2023-09-30T00:14:49;16.40;99.90
32612;DHT22;19030;49.478;8.986;2023-09-30T00:16:50;16.30;99.90
32612;DHT22;19030;49.478;8.986;2023-09-30T00:18:51;16.20;99.90
32612;DHT22;19030;49.478;8.986;2023-09-30T00:20:52;16.20;99.90
32612;DHT22;19030;49.478;8.986;2023-09-30T00:22:52;16.20;99.90
32612;DHT22;19030;49.478;8.986;2023-09-30T00:24:53;16.20;99.90
32612;DHT22;19030;49.478;8.986;2023-09-30T00:26:53;16.10;99.90
32612;DHT22;19030;49.478;8.986;2023-09-30T00:28:54;16.10;99.90
32612;DHT22;19030;49.478;8.986;2023-09-30T00:30:56;16.10;99.90
32612;DHT22;19030;49.478;8.986;2023-09-30T00:32:56;16.10;99.90
32612;DHT22;19030;49.478;8.986;2023-09-30T00:34:57;16.00;99.90
32612;DHT22;19030;49.478;8.986;2023-09-30T00:36:58;16.00;99.90
32612;DHT22;19030;49.478;8.986;2023-09-30T00:38:59;16.00;99.90
32612;DHT22;19030;49.478;8.986;2023-09-30T00:40:59;16.00;99.90
32612;DHT22;19030;49.478;8.986;2023-09-30T00:43:00;16.00;99.90
32612;DHT22;19030;49.478;8.986;2023-09-30T00:45:01;16.00;99.90
32612;DHT22;19030;49.478;8.986;2023-09-30T00:47:05;16.00;99.90
32612;DHT22;19030;49.478;8.986;2023-09-30T00:49:06;15.90;99.90
32612;DHT22;19030;49.478;8.986;2023-09-30T00:51:07;15.90;99.90
32612;DHT22;19030;49.478;8.986;2023-09-30T00:53:07;15.90;99.90
32612;DHT22;19030;49.478;8.986;2023-09-30T00:55:08;15.80;99.90
32612;DHT22;19030;49.478;8.986;2023-09-30T00:57:10;15.80;99.90
32612;DHT22;19030;49.478;8.986;2023-09-30T00:59:16;15.80;99.90
32612;DHT22;19030;49.478;8.986;2023-09-30T01:01:20;15.70;99.90
32612;DHT22;19030;49.478;8.986;2023-09-30T01:03:21;15.70;99.90
32612;DHT22;19030;49.478;8.986;2023-09-30T01:05:22;15.70;99.90
32612;DHT22;19030;49.478;8.986;2023-09-30T01:07:22;15.60;99.90
32612;DHT22;19030;49.478;8.986;2023-09-30T01:09:23;15.60;99.90
32612;DHT22;19030;49.478;8.986;2023-09-30T01:11:25;15.60;99.90
32612;DHT22;19030;49.478;8.986;2023-09-30T01:13:38;15.60;99.90
32612;DHT22;19030;49.478;8.986;2023-09-30T01:15:39;15.60;99.90
32612;DHT22;19030;49.478;8.986;2023-09-30T01:17:39;15.60;99.90
32612;DHT22;19030;49.478;8.986;2023-09-30T01:19:40;15.60;99.90
32612;DHT22;19030;49.478;8.986;2023-09-30T01:21:42;15.60;99.90
32612;DHT22;19030;49.478;8.986;2023-09-30T01:23:48;15.60;99.90
32612;DHT22;19030;49.478;8.986;2023-09-30T01:25:49;15.60;99.90
32612;DHT22;19030;49.478;8.986;2023-09-30T01:27:50;15.60;99.90
32612;DHT22;19030;49.478;8.986;2023-09-30T01:29:54;15.60;99.90
32612;DHT22;19030;49.478;8.986;2023-09-30T01:31:55;15.60;99.90
32612;DHT22;19030;49.478;8.986;2023-09-30T01:33:56;15.60;99.90
32612;DHT22;19030;49.478;8.986;2023-09-30T01:35:59;15.60;99.90
32612;DHT22;19030;49.478;8.986;2023-09-30T01:38:02;15.50;99.90
32612;DHT22;19030;49.478;8.986;2023-09-30T01:40:03;15.50;99.90
32612;DHT22;19030;49.478;8.986;2023-09-30T01:42:04;15.50;99.90
32612;DHT22;19030;49.478;8.986;2023-09-30T01:44:07;15.50;99.90
32612;DHT22;19030;49.478;8.986;2023-09-30T01:46:10;15.50;99.90
32612;DHT22;19030;49.478;8.986;2023-09-30T01:48:11;15.50;99.90
32612;DHT22;19030;49.478;8.986;2023-09-30T01:50:12;15.50;99.90
32612;DHT22;19030;49.478;8.986;2023-09-30T01:52:12;15.50;99.90
32612;DHT22;19030;49.478;8.986;2023-09-30T01:54:13;15.50;99.90
32612;DHT22;19030;49.478;8.986;2023-09-30T01:56:13;15.50;99.90
32612;DHT22;19030;49.478;8.986;2023-09-30T01:58:14;15.50;99.90
32612;DHT22;19030;49.478;8.986;2023-09-30T02:00:15;15.50;99.90
32612;DHT22;19030;49.478;8.986;2023-09-30T02:02:16;15.50;99.90
32612;DHT22;19030;49.478;8.986;2023-09-30T02:04:17;15.50;99.90
32612;DHT22;19030;49.478;8.986;2023-09-30T02:06:18;15.50;99.90
32612;DHT22;19030;49.478;8.986;2023-09-30T02:08:18;15.50;99.90
32612;DHT22;19030;49.478;8.986;2023-09-30T02:10:19;15.50;99.90
32612;DHT22;19030;49.478;8.986;2023-09-30T02:12:20;15.50;99.90
32612;DHT22;19030;49.478;8.986;2023-09-30T02:14:21;15.50;99.90
32612;DHT22;19030;49.478;8.986;2023-09-30T02:16:21;15.50;99.90
32612;DHT22;19030;49.478;8.986;2023-09-30T02:18:23;15.50;99.90
32612;DHT22;19030;49.478;8.986;2023-09-30T02:20:24;15.50;99.90
32612;DHT22;19030;49.478;8.986;2023-09-30T02:22:26;15.50;99.90
32612;DHT22;19030;49.478;8.986;2023-09-30T02:24:28;15.50;99.90
32612;DHT22;19030;49.478;8.986;2023-09-30T02:26:29;15.50;99.90
32612;DHT22;19030;49.478;8.986;2023-09-30T02:28:29;15.50;99.90
32612;DHT22;19030;49.478;8.986;2023-09-30T02:30:34;15.50;99.90
32612;DHT22;19030;49.478;8.986;2023-09-30T02:32:38;15.50;99.90
32612;DHT22;19030;49.478;8.986;2023-09-30T02:34:40;15.50;99.90
32612;DHT22;19030;49.478;8.986;2023-09-30T02:36:41;15.50;99.90
32612;DHT22;19030;49.478;8.986;2023-09-30T02:38:42;15.50;99.90
32612;DHT22;19030;49.478;8.986;2023-09-30T02:40:44;15.50;99.90
32612;DHT22;19030;49.478;8.986;2023-09-30T02:42:46;15.50;99.90
32612;DHT22;19030;49.478;8.986;2023-09-30T02:44:48;15.50;99.90
32612;DHT22;19030;49.478;8.986;2023-09-30T02:46:49;15.50;99.90
32612;DHT22;19030;49.478;8.986;2023-09-30T02:48:49;15.50;99.90
32612;DHT22;19030;49.478;8.986;2023-09-30T02:50:50;15.50;99.90
32612;DHT22;19030;49.478;8.986;2023-09-30T02:52:51;15.50;99.90
32612;DHT22;19030;49.478;8.986;2023-09-30T02:54:52;15.40;99.90
32612;DHT22;19030;49.478;8.986;2023-09-30T02:56:53;15.40;99.90
32612;DHT22;19030;49.478;8.986;2023-09-30T02:58:55;15.50;99.90
32612;DHT22;19030;49.478;8.986;2023-09-30T03:00:56;15.40;99.90
32612;DHT22;19030;49.478;8.986;2023-09-30T03:02:56;15.50;99.90
32612;DHT22;19030;49.478;8.986;2023-09-30T03:04:57;15.50;99.90
32612;DHT22;19030;49.478;8.986;2023-09-30T03:06:58;15.50;99.90
32612;DHT22;19030;49.478;8.986;2023-09-30T03:08:59;15.50;99.90
32612;DHT22;19030;49.478;8.986;2023-09-30T03:10:59;15.50;99.90
32612;DHT22;19030;49.478;8.986;2023-09-30T03:13:00;15.50;99.90
32612;DHT22;19030;49.478;8.986;2023-09-30T03:15:02;15.50;99.90
32612;DHT22;19030;49.478;8.986;2023-09-30T03:17:04;15.50;99.90
32612;DHT22;19030;49.478;8.986;2023-09-30T03:19:05;15.50;99.90
32612;DHT22;19030;49.478;8.986;2023-09-30T03:21:14;15.50;99.90
32612;DHT22;19030;49.478;8.986;2023-09-30T03:23:14;15.50;99.90
32612;DHT22;19030;49.478;8.986;2023-09-30T03:25:17;15.40;99.90
32612;DHT22;19030;49.478;8.986;2023-09-30T03:27:18;15.40;99.90
32612;DHT22;19030;49.478;8.986;2023-09-30T03:29:18;15.40;99.90
32612;DHT22;19030;49.478;8.986;2023-09-30T03:31:22;15.40;99.90
32612;DHT22;19030;49.478;8.986;2023-09-30T03:33:22;15.40;99.90
32612;DHT22;19030;49.478;8.986;2023-09-30T03:35:23;15.40;99.90
32612;DHT22;19030;49.478;8.986;2023-09-30T03:37:25;15.40;99.90
32612;DHT22;19030;49.478;8.986;2023-09-30T03:39:27;15.40;99.90
32612;DHT22;19030;49.478;8.986;2023-09-30T03:41:27;15.40;99.90
32612;DHT22;19030;49.478;8.986;2023-09-30T03:43:29;15.40;99.90
32612;DHT22;19030;49.478;8.986;2023-09-30T03:45:30;15.30;99.90
32612;DHT22;19030;49.478;8.986;2023-09-30T03:47:31;15.30;99.90
32612;DHT22;19030;49.478;8.986;2023-09-30T03:49:32;15.30;99.90
32612;DHT22;19030;49.478;8.986;2023-09-30T03:51:32;15.20;99.90
32612;DHT22;19030;49.478;8.986;2023-09-30T03:53:33;15.20;99.90
32612;DHT22;19030;49.478;8.986;2023-09-30T03:55:33;15.20;99.90
32612;DHT22;19030;49.478;8.986;2023-09-30T03:57:34;15.10;99.90
32612;DHT22;19030;49.478;8.986;2023-09-30T03:59:34;15.10;99.90
32612;DHT22;19030;49.478;8.986;2023-09-30T04:01:35;15.00;99.90
32612;DHT22;19030;49.478;8.986;2023-09-30T04:03:40;15.00;99.90
32612;DHT22;19030;49.478;8.986;2023-09-30T04:05:42;15.00;99.90
32612;DHT22;19030;49.478;8.986;2023-09-30T04:07:43;14.90;99.90
32612;DHT22;19030;49.478;8.986;2023-09-30T04:09:43;14.80;99.90
32612;DHT22;19030;49.478;8.986;2023-09-30T04:11:44;14.80;99.90
32612;DHT22;19030;49.478;8.986;2023-09-30T04:13:45;14.80;99.90
32612;DHT22;19030;49.478;8.986;2023-09-30T04:15:45;14.70;99.90
32612;DHT22;19030;49.478;8.986;2023-09-30T04:17:48;14.60;99.90
32612;DHT22;19030;49.478;8.986;2023-09-30T04:19:48;14.60;99.90
32612;DHT22;19030;49.478;8.986;2023-09-30T04:21:52;14.60;99.90
32612;DHT22;19030;49.478;8.986;2023-09-30T04:23:52;14.50;99.90
32612;DHT22;19030;49.478;8.986;2023-09-30T04:25:53;14.50;99.90
32612;DHT22;19030;49.478;8.986;2023-09-30T04:27:54;14.50;99.90
32612;DHT22;19030;49.478;8.986;2023-09-30T04:29:54;14.40;99.90
32612;DHT22;19030;49.478;8.986;2023-09-30T04:31:58;14.40;99.90
32612;DHT22;19030;49.478;8.986;2023-09-30T04:33:59;14.30;99.90
32612;DHT22;19030;49.478;8.986;2023-09-30T04:35:59;14.30;99.90
32612;DHT22;19030;49.478;8.986;2023-09-30T04:38:00;14.30;99.90
32612;DHT22;19030;49.478;8.986;2023-09-30T04:40:05;14.20;99.90
32612;DHT22;19030;49.478;8.986;2023-09-30T04:42:08;14.20;99.90
32612;DHT22;19030;49.478;8.986;2023-09-30T04:44:11;14.10;99.90
32612;DHT22;19030;49.478;8.986;2023-09-30T04:46:11;14.10;99.90
32612;DHT22;19030;49.478;8.986;2023-09-30T04:48:13;14.00;99.90
32612;DHT22;19030;49.478;8.986;2023-09-30T04:50:13;13.90;99.90
32612;DHT22;19030;49.478;8.986;2023-09-30T04:52:16;13.90;99.90
32612;DHT22;19030;49.478;8.986;2023-09-30T04:54:17;13.80;99.90
32612;DHT22;19030;49.478;8.986;2023-09-30T04:56:17;13.80;99.90
32612;DHT22;19030;49.478;8.986;2023-09-30T04:58:18;13.70;99.90
32612;DHT22;19030;49.478;8.986;2023-09-30T05:00:19;13.70;99.90
32612;DHT22;19030;49.478;8.986;2023-09-30T05:02:27;13.60;99.90
32612;DHT22;19030;49.478;8.986;2023-09-30T05:04:27;13.60;99.90
32612;DHT22;19030;49.478;8.986;2023-09-30T05:06:31;13.50;99.90
32612;DHT22;19030;49.478;8.986;2023-09-30T05:08:32;13.50;99.90
32612;DHT22;19030;49.478;8.986;2023-09-30T05:10:33;13.50;99.90
32612;DHT22;19030;49.478;8.986;2023-09-30T05:12:34;13.40;99.90
32612;DHT22;19030;49.478;8.986;2023-09-30T05:14:35;13.40;99.90
32612;DHT22;19030;49.478;8.986;2023-09-30T05:16:37;13.40;99.90
32612;DHT22;19030;49.478;8.986;2023-09-30T05:18:37;13.40;99.90
32612;DHT22;19030;49.478;8.986;2023-09-30T05:20:38;13.40;99.90
32612;DHT22;19030;49.478;8.986;2023-09-30T05:22:39;13.30;99.90
32612;DHT22;19030;49.478;8.986;2023-09-30T05:24:42;13.30;99.90
32612;DHT22;19030;49.478;8.986;2023-09-30T05:26:43;13.30;99.90
32612;DHT22;19030;49.478;8.986;2023-09-30T05:28:44;13.30;99.90
32612;DHT22;19030;49.478;8.986;2023-09-30T05:30:45;13.30;99.90
32612;DHT22;19030;49.478;8.986;2023-09-30T05:32:46;13.30;99.90
32612;DHT22;19030;49.478;8.986;2023-09-30T05:34:47;13.30;99.90
32612;DHT22;19030;49.478;8.986;2023-09-30T05:36:48;13.30;99.90
32612;DHT22;19030;49.478;8.986;2023-09-30T05:38:50;13.30;99.90
32612;DHT22;19030;49.478;8.986;2023-09-30T05:40:50;13.30;99.90
32612;DHT22;19030;49.478;8.986;2023-09-30T05:42:55;13.30;99.90
32612;DHT22;19030;49.478;8.986;2023-09-30T05:44:55;13.30;99.90
32612;DHT22;19030;49.478;8.986;2023-09-30T05:46:56;13.30;99.90
32612;DHT22;19030;49.478;8.986;2023-09-30T05:48:57;13.40;99.90
32612;DHT22;19030;49.478;8.986;2023-09-30T05:50:58;13.50;99.90
32612;DHT22;19030;49.478;8.986;2023-09-30T05:52:58;13.60;99.90
32612;DHT22;19030;49.478;8.986;2023-09-30T05:54:59;13.70;99.90
32612;DHT22;19030;49.478;8.986;2023-09-30T05:57:02;13.70;99.90
32612;DHT22;19030;49.478;8.986;2023-09-30T05:59:04;13.80;99.90
32612;DHT22;19030;49.478;8.986;2023-09-30T06:01:09;13.90;99.90
32612;DHT22;19030;49.478;8.986;2023-09-30T06:03:13;14.00;99.90
32612;DHT22;19030;49.478;8.986;2023-09-30T06:05:13;14.00;99.90
32612;DHT22;19030;49.478;8.986;2023-09-30T06:07:16;14.10;99.90
32612;DHT22;19030;49.478;8.986;2023-09-30T06:09:16;14.10;99.90
32612;DHT22;19030;49.478;8.986;2023-09-30T06:11:18;14.10;99.90
32612;DHT22;19030;49.478;8.986;2023-09-30T06:13:19;14.20;99.90
32612;DHT22;19030;49.478;8.986;2023-09-30T06:15:21;14.20;99.90
32612;DHT22;19030;49.478;8.986;2023-09-30T06:17:26;14.20;99.90
32612;DHT22;19030;49.478;8.986;2023-09-30T06:19:26;14.30;99.90
32612;DHT22;19030;49.478;8.986;2023-09-30T06:21:27;14.30;99.90
32612;DHT22;19030;49.478;8.986;2023-09-30T06:23:30;14.40;99.90
32612;DHT22;19030;49.478;8.986;2023-09-30T06:25:30;14.50;99.90
32612;DHT22;19030;49.478;8.986;2023-09-30T06:27:33;14.50;99.90
32612;DHT22;19030;49.478;8.986;2023-09-30T06:29:33;14.60;99.90
32612;DHT22;19030;49.478;8.986;2023-09-30T06:31:34;14.70;99.90
32612;DHT22;19030;49.478;8.986;2023-09-30T06:33:35;14.80;99.90
32612;DHT22;19030;49.478;8.986;2023-09-30T06:35:36;14.80;99.90
32612;DHT22;19030;49.478;8.986;2023-09-30T06:37:40;14.90;99.90
32612;DHT22;19030;49.478;8.986;2023-09-30T06:39:41;15.00;99.90
32612;DHT22;19030;49.478;8.986;2023-09-30T06:41:42;15.10;99.90
32612;DHT22;19030;49.478;8.986;2023-09-30T06:43:45;15.30;99.90
32612;DHT22;19030;49.478;8.986;2023-09-30T06:45:47;15.40;99.90
32612;DHT22;19030;49.478;8.986;2023-09-30T06:47:47;15.60;99.90
32612;DHT22;19030;49.478;8.986;2023-09-30T06:49:48;15.90;99.90
32612;DHT22;19030;49.478;8.986;2023-09-30T06:51:49;16.20;99.90
32612;DHT22;19030;49.478;8.986;2023-09-30T06:53:49;16.40;99.90
32612;DHT22;19030;49.478;8.986;2023-09-30T06:55:50;16.70;99.90
32612;DHT22;19030;49.478;8.986;2023-09-30T06:57:51;17.00;99.90
32612;DHT22;19030;49.478;8.986;2023-09-30T06:59:52;17.30;99.90
32612;DHT22;19030;49.478;8.986;2023-09-30T07:01:52;17.50;99.90
32612;DHT22;19030;49.478;8.986;2023-09-30T07:03:53;17.80;99.90
32612;DHT22;19030;49.478;8.986;2023-09-30T07:05:53;18.10;99.90
32612;DHT22;19030;49.478;8.986;2023-09-30T07:07:54;18.20;99.90
32612;DHT22;19030;49.478;8.986;2023-09-30T07:09:55;18.40;99.90
32612;DHT22;19030;49.478;8.986;2023-09-30T07:11:56;18.60;99.90
32612;DHT22;19030;49.478;8.986;2023-09-30T07:13:57;18.70;99.90
32612;DHT22;19030;49.478;8.986;2023-09-30T07:15:57;18.80;99.90
32612;DHT22;19030;49.478;8.986;2023-09-30T07:17:58;18.90;99.90
32612;DHT22;19030;49.478;8.986;2023-09-30T07:19:58;19.00;99.90
32612;DHT22;19030;49.478;8.986;2023-09-30T07:21:59;19.00;99.90
32612;DHT22;19030;49.478;8.986;2023-09-30T07:24:00;19.10;99.90
32612;DHT22;19030;49.478;8.986;2023-09-30T07:26:01;19.20;99.90
32612;DHT22;19030;49.478;8.986;2023-09-30T07:28:02;19.20;99.90
32612;DHT22;19030;49.478;8.986;2023-09-30T07:30:02;19.10;99.90
32612;DHT22;19030;49.478;8.986;2023-09-30T07:32:03;19.00;99.90
32612;DHT22;19030;49.478;8.986;2023-09-30T07:34:04;19.20;99.90
32612;DHT22;19030;49.478;8.986;2023-09-30T07:36:04;19.50;99.90
32612;DHT22;19030;49.478;8.986;2023-09-30T07:38:05;19.90;99.90
32612;DHT22;19030;49.478;8.986;2023-09-30T07:40:06;20.20;99.90
32612;DHT22;19030;49.478;8.986;2023-09-30T07:42:09;20.30;99.90
32612;DHT22;19030;49.478;8.986;2023-09-30T07:44:09;20.50;99.90
32612;DHT22;19030;49.478;8.986;2023-09-30T07:46:11;20.60;99.90
32612;DHT22;19030;49.478;8.986;2023-09-30T07:48:11;20.70;99.90
32612;DHT22;19030;49.478;8.986;2023-09-30T07:50:12;20.90;99.90
32612;DHT22;19030;49.478;8.986;2023-09-30T07:52:13;21.10;99.90
32612;DHT22;19030;49.478;8.986;2023-09-30T07:54:13;21.10;99.90
32612;DHT22;19030;49.478;8.986;2023-09-30T07:56:14;21.10;99.90
32612;DHT22;19030;49.478;8.986;2023-09-30T07:58:14;21.30;99.90
32612;DHT22;19030;49.478;8.986;2023-09-30T08:00:16;21.40;99.90
32612;DHT22;19030;49.478;8.986;2023-09-30T08:02:17;21.70;99.90
32612;DHT22;19030;49.478;8.986;2023-09-30T08:04:18;21.90;99.90
32612;DHT22;19030;49.478;8.986;2023-09-30T08:06:19;22.10;99.90
32612;DHT22;19030;49.478;8.986;2023-09-30T08:08:20;22.50;99.90
32612;DHT22;19030;49.478;8.986;2023-09-30T08:10:20;22.60;99.90
32612;DHT22;19030;49.478;8.986;2023-09-30T08:12:21;22.60;99.90
32612;DHT22;19030;49.478;8.986;2023-09-30T08:14:21;22.80;99.90
32612;DHT22;19030;49.478;8.986;2023-09-30T08:16:22;22.80;99.90
32612;DHT22;19030;49.478;8.986;2023-09-30T08:18:22;22.70;99.90
32612;DHT22;19030;49.478;8.986;2023-09-30T08:20:23;22.90;99.90
32612;DHT22;19030;49.478;8.986;2023-09-30T08:22:23;22.90;99.90
32612;DHT22;19030;49.478;8.986;2023-09-30T08:24:29;22.90;99.90
32612;DHT22;19030;49.478;8.986;2023-09-30T08:26:29;23.10;99.80
32612;DHT22;19030;49.478;8.986;2023-09-30T08:28:30;23.40;98.70
32612;DHT22;19030;49.478;8.986;2023-09-30T08:30:32;23.50;98.50
32612;DHT22;19030;49.478;8.986;2023-09-30T08:32:34;23.80;97.50
32612;DHT22;19030;49.478;8.986;2023-09-30T08:34:35;24.30;96.00
32612;DHT22;19030;49.478;8.986;2023-09-30T08:36:36;24.70;94.30
32612;DHT22;19030;49.478;8.986;2023-09-30T08:38:37;25.00;92.70
32612;DHT22;19030;49.478;8.986;2023-09-30T08:40:38;25.30;91.30
32612;DHT22;19030;49.478;8.986;2023-09-30T08:42:39;25.80;90.30
32612;DHT22;19030;49.478;8.986;2023-09-30T08:44:40;26.30;88.10
32612;DHT22;19030;49.478;8.986;2023-09-30T08:46:40;27.40;82.40
32612;DHT22;19030;49.478;8.986;2023-09-30T08:48:42;27.90;78.70
32612;DHT22;19030;49.478;8.986;2023-09-30T08:50:43;28.40;75.30
32612;DHT22;19030;49.478;8.986;2023-09-30T08:52:44;29.10;70.80
32612;DHT22;19030;49.478;8.986;2023-09-30T08:54:45;29.70;65.60
32612;DHT22;19030;49.478;8.986;2023-09-30T08:56:47;30.40;61.40
32612;DHT22;19030;49.478;8.986;2023-09-30T08:58:52;31.20;57.50
32612;DHT22;19030;49.478;8.986;2023-09-30T09:00:53;31.90;55.30
32612;DHT22;19030;49.478;8.986;2023-09-30T09:02:54;32.70;51.90
32612;DHT22;19030;49.478;8.986;2023-09-30T09:04:54;33.00;50.10
32612;DHT22;19030;49.478;8.986;2023-09-30T09:06:55;33.10;49.50
32612;DHT22;19030;49.478;8.986;2023-09-30T09:09:13;33.10;49.30
32612;DHT22;19030;49.478;8.986;2023-09-30T09:11:14;33.00;48.40
32612;DHT22;19030;49.478;8.986;2023-09-30T09:13:15;33.60;46.80
32612;DHT22;19030;49.478;8.986;2023-09-30T09:15:26;33.60;44.50
32612;DHT22;19030;49.478;8.986;2023-09-30T09:17:43;34.00;45.40
32612;DHT22;19030;49.478;8.986;2023-09-30T09:19:59;34.50;43.40
32612;DHT22;19030;49.478;8.986;2023-09-30T09:22:00;34.70;42.90
32612;DHT22;19030;49.478;8.986;2023-09-30T09:24:01;35.40;42.10
32612;DHT22;19030;49.478;8.986;2023-09-30T09:26:02;35.90;40.70
32612;DHT22;19030;49.478;8.986;2023-09-30T09:28:06;35.80;40.20
32612;DHT22;19030;49.478;8.986;2023-09-30T09:30:17;35.20;40.40
32612;DHT22;19030;49.478;8.986;2023-09-30T09:32:18;34.90;42.00
32612;DHT22;19030;49.478;8.986;2023-09-30T09:34:19;34.40;41.70
32612;DHT22;19030;49.478;8.986;2023-09-30T09:36:20;34.50;41.60
32612;DHT22;19030;49.478;8.986;2023-09-30T09:38:20;34.40;41.60
32612;DHT22;19030;49.478;8.986;2023-09-30T09:40:26;34.60;41.40
32612;DHT22;19030;49.478;8.986;2023-09-30T09:42:31;35.00;40.70
32612;DHT22;19030;49.478;8.986;2023-09-30T09:44:33;35.40;39.60
32612;DHT22;19030;49.478;8.986;2023-09-30T09:46:36;34.80;39.80
32612;DHT22;19030;49.478;8.986;2023-09-30T09:48:37;35.00;40.10
32612;DHT22;19030;49.478;8.986;2023-09-30T09:50:38;34.90;39.90
32612;DHT22;19030;49.478;8.986;2023-09-30T09:52:41;34.20;40.60
32612;DHT22;19030;49.478;8.986;2023-09-30T09:54:43;33.30;41.20
32612;DHT22;19030;49.478;8.986;2023-09-30T09:56:45;32.20;43.20
32612;DHT22;19030;49.478;8.986;2023-09-30T09:58:47;31.40;44.90
32612;DHT22;19030;49.478;8.986;2023-09-30T10:00:48;31.50;44.70
32612;DHT22;19030;49.478;8.986;2023-09-30T10:02:50;31.90;44.30
32612;DHT22;19030;49.478;8.986;2023-09-30T10:04:50;32.30;43.10
32612;DHT22;19030;49.478;8.986;2023-09-30T10:06:52;31.60;44.20
32612;DHT22;19030;49.478;8.986;2023-09-30T10:08:54;30.80;45.00
32612;DHT22;19030;49.478;8.986;2023-09-30T10:10:56;30.80;45.50
32612;DHT22;19030;49.478;8.986;2023-09-30T10:12:58;30.80;45.50
32612;DHT22;19030;49.478;8.986;2023-09-30T10:15:00;31.20;45.40
32612;DHT22;19030;49.478;8.986;2023-09-30T10:17:00;30.90;45.90
32612;DHT22;19030;49.478;8.986;2023-09-30T10:19:16;31.00;45.90
32612;DHT22;19030;49.478;8.986;2023-09-30T10:21:18;31.40;44.60
32612;DHT22;19030;49.478;8.986;2023-09-30T10:23:29;31.40;44.00
32612;DHT22;19030;49.478;8.986;2023-09-30T10:25:34;31.00;44.60
32612;DHT22;19030;49.478;8.986;2023-09-30T10:27:39;31.50;44.80
32612;DHT22;19030;49.478;8.986;2023-09-30T10:29:43;31.60;44.40
32612;DHT22;19030;49.478;8.986;2023-09-30T10:31:50;31.40;43.90
32612;DHT22;19030;49.478;8.986;2023-09-30T10:36:01;30.50;44.90
32612;DHT22;19030;49.478;8.986;2023-09-30T10:40:29;29.90;44.30
32612;DHT22;19030;49.478;8.986;2023-09-30T10:42:46;28.90;46.20
32612;DHT22;19030;49.478;8.986;2023-09-30T10:44:47;28.10;47.90
32612;DHT22;19030;49.478;8.986;2023-09-30T10:46:51;27.50;49.40
32612;DHT22;19030;49.478;8.986;2023-09-30T10:48:51;27.60;50.50
32612;DHT22;19030;49.478;8.986;2023-09-30T10:50:57;27.60;49.60
32612;DHT22;19030;49.478;8.986;2023-09-30T10:53:03;27.10;49.70
32612;DHT22;19030;49.478;8.986;2023-09-30T10:55:05;26.90;50.60
32612;DHT22;19030;49.478;8.986;2023-09-30T10:57:10;26.90;51.80
32612;DHT22;19030;49.478;8.986;2023-09-30T10:59:17;26.80;50.40
32612;DHT22;19030;49.478;8.986;2023-09-30T11:01:22;26.90;51.00
32612;DHT22;19030;49.478;8.986;2023-09-30T11:03:23;28.40;47.80
32612;DHT22;19030;49.478;8.986;2023-09-30T11:05:24;30.00;45.20
32612;DHT22;19030;49.478;8.986;2023-09-30T11:07:25;31.50;43.60
32612;DHT22;19030;49.478;8.986;2023-09-30T11:09:26;32.70;41.50
32612;DHT22;19030;49.478;8.986;2023-09-30T11:11:42;33.50;40.10
32612;DHT22;19030;49.478;8.986;2023-09-30T11:13:43;33.50;40.20
32612;DHT22;19030;49.478;8.986;2023-09-30T11:15:45;33.80;39.20
32612;DHT22;19030;49.478;8.986;2023-09-30T11:17:46;34.30;38.30
32612;DHT22;19030;49.478;8.986;2023-09-30T11:19:47;33.70;38.40
32612;DHT22;19030;49.478;8.986;2023-09-30T11:21:53;33.50;38.00
32612;DHT22;19030;49.478;8.986;2023-09-30T11:23:55;33.10;38.90
32612;DHT22;19030;49.478;8.986;2023-09-30T11:25:56;33.00;38.60
32612;DHT22;19030;49.478;8.986;2023-09-30T11:28:16;33.20;38.30
32612;DHT22;19030;49.478;8.986;2023-09-30T11:30:16;32.70;38.70
32612;DHT22;19030;49.478;8.986;2023-09-30T11:32:27;32.00;39.30
32612;DHT22;19030;49.478;8.986;2023-09-30T11:34:34;31.50;40.20
32612;DHT22;19030;49.478;8.986;2023-09-30T11:36:37;32.10;40.50
32612;DHT22;19030;49.478;8.986;2023-09-30T11:38:44;32.60;39.10
32612;DHT22;19030;49.478;8.986;2023-09-30T11:41:02;32.60;39.40
32612;DHT22;19030;49.478;8.986;2023-09-30T11:43:09;31.70;41.30
32612;DHT22;19030;49.478;8.986;2023-09-30T11:45:21;30.70;41.10
32612;DHT22;19030;49.478;8.986;2023-09-30T11:47:28;29.40;43.30
32612;DHT22;19030;49.478;8.986;2023-09-30T11:49:38;28.30;45.20
32612;DHT22;19030;49.478;8.986;2023-09-30T11:51:45;28.60;45.70
32612;DHT22;19030;49.478;8.986;2023-09-30T11:53:46;30.10;43.50
32612;DHT22;19030;49.478;8.986;2023-09-30T11:55:49;31.50;42.00
32612;DHT22;19030;49.478;8.986;2023-09-30T11:57:49;32.60;40.10
32612;DHT22;19030;49.478;8.986;2023-09-30T11:59:52;33.40;39.90
32612;DHT22;19030;49.478;8.986;2023-09-30T12:01:52;32.60;39.10
32612;DHT22;19030;49.478;8.986;2023-09-30T12:03:53;32.40;40.40
32612;DHT22;19030;49.478;8.986;2023-09-30T12:05:57;32.40;40.20
32612;DHT22;19030;49.478;8.986;2023-09-30T12:07:57;32.50;40.60
32612;DHT22;19030;49.478;8.986;2023-09-30T12:09:58;32.80;39.50
32612;DHT22;19030;49.478;8.986;2023-09-30T12:11:58;32.60;39.80
32612;DHT22;19030;49.478;8.986;2023-09-30T12:13:59;32.80;39.90
32612;DHT22;19030;49.478;8.986;2023-09-30T12:16:01;32.70;40.20
32612;DHT22;19030;49.478;8.986;2023-09-30T12:18:01;32.40;40.00
32612;DHT22;19030;49.478;8.986;2023-09-30T12:20:02;32.70;39.70
32612;DHT22;19030;49.478;8.986;2023-09-30T12:22:05;32.90;39.30
32612;DHT22;19030;49.478;8.986;2023-09-30T12:24:06;33.00;38.80
32612;DHT22;19030;49.478;8.986;2023-09-30T12:26:09;33.00;39.90
32612;DHT22;19030;49.478;8.986;2023-09-30T12:28:10;33.30;40.40
32612;DHT22;19030;49.478;8.986;2023-09-30T12:30:10;33.70;38.00
32612;DHT22;19030;49.478;8.986;2023-09-30T12:32:14;33.80;38.60
32612;DHT22;19030;49.478;8.986;2023-09-30T12:34:15;34.30;38.30
32612;DHT22;19030;49.478;8.986;2023-09-30T12:36:16;34.70;37.40
32612;DHT22;19030;49.478;8.986;2023-09-30T12:38:17;33.80;37.20
32612;DHT22;19030;49.478;8.986;2023-09-30T12:40:18;32.20;39.50
32612;DHT22;19030;49.478;8.986;2023-09-30T12:42:19;30.30;41.10
32612;DHT22;19030;49.478;8.986;2023-09-30T12:44:19;28.70;44.80
32612;DHT22;19030;49.478;8.986;2023-09-30T12:46:20;27.40;47.20
32612;DHT22;19030;49.478;8.986;2023-09-30T12:48:21;27.30;49.20
32612;DHT22;19030;49.478;8.986;2023-09-30T12:50:21;28.00;47.00
32612;DHT22;19030;49.478;8.986;2023-09-30T12:52:22;28.00;46.20
32612;DHT22;19030;49.478;8.986;2023-09-30T12:54:24;27.80;46.50